Time;durP1;ratioP1;P1;durP2;ratioP2;P2;SDS_P1;SDS_P2;PMS_P1;PMS_P2;Temp;Humidity;BMP_temperature;BMP_pressure;BME280_temperature;BME280_humidity;BME280_pressure;Samples;Min_cycle;Max_cycle;Signal;HPM_P1;HPM_P2
2022/11/22 00:01:38;;;;;;;75.90;44.70;;;;;;;3.57;84.63;93529.98;1679572;84;20990;-80
2022/11/22 00:04:08;;;;;;;82.92;46.83;;;;;;;3.58;84.65;93530.73;1686068;83;21094;-81
2022/11/22 00:06:36;;;;;;;92.00;50.92;;;;;;;3.56;84.81;93533.12;1680617;83;21155;-80
2022/11/22 00:09:03;;;;;;;81.32;47.35;;;;;;;3.62;85.15;93533.52;1679035;83;21192;-80
2022/11/22 00:11:33;;;;;;;186.62;81.90;;;;;;;3.75;85.49;93531.59;1693201;83;21499;-80
2022/11/22 00:14:00;;;;;;;113.55;57.78;;;;;;;3.89;85.22;93533.13;1686922;82;21040;-80
2022/11/22 00:16:29;;;;;;;65.65;41.10;;;;;;;3.93;84.31;93533.20;1695440;82;21034;-80
2022/11/22 00:18:56;;;;;;;69.82;39.80;;;;;;;3.86;83.46;93538.83;1676417;83;21175;-81
2022/11/22 00:21:24;;;;;;;72.47;43.50;;;;;;;3.76;83.43;93542.64;1716640;83;20968;-80
2022/11/22 00:23:57;;;;;;;92.70;53.20;;;;;;;3.67;83.39;93541.14;1677220;83;21067;-81
2022/11/22 00:26:26;;;;;;;96.63;56.90;;;;;;;3.57;83.51;93540.86;1675124;84;21103;-80
2022/11/22 00:28:53;;;;;;;89.35;51.77;;;;;;;3.53;83.53;93548.33;1683292;83;21038;-81
2022/11/22 00:31:22;;;;;;;80.07;45.17;;;;;;;3.41;83.50;93544.84;1676909;83;21130;-80
2022/11/22 00:33:49;;;;;;;68.22;40.48;;;;;;;3.33;83.93;93550.28;1688924;83;21198;-80
2022/11/22 00:36:16;;;;;;;70.00;39.63;;;;;;;3.41;84.59;93549.66;1715725;83;21514;-80
2022/11/22 00:38:43;;;;;;;65.55;39.92;;;;;;;3.42;84.01;93541.67;1708324;83;21039;-81
2022/11/22 00:41:12;;;;;;;66.82;40.43;;;;;;;3.43;84.27;93539.73;1681777;83;21133;-81
2022/11/22 00:43:39;;;;;;;71.87;41.48;;;;;;;3.48;84.67;93538.61;1699192;82;21249;-80
2022/11/22 00:46:07;;;;;;;69.50;39.70;;;;;;;3.61;84.42;93542.88;1684094;83;21070;-80
2022/11/22 00:48:35;;;;;;;69.53;42.58;;;;;;;3.66;83.98;93538.26;1680860;83;21078;-79
2022/11/22 00:51:02;;;;;;;68.02;38.95;;;;;;;3.71;83.77;93542.41;1685133;83;20994;-80
2022/11/22 00:53:30;;;;;;;62.98;38.45;;;;;;;3.75;83.80;93534.32;1680359;83;20991;-81
2022/11/22 00:55:57;;;;;;;58.40;36.60;;;;;;;3.83;83.65;93533.52;1694236;83;21066;-80
2022/11/22 00:58:25;;;;;;;82.80;47.62;;;;;;;3.92;83.57;93534.98;1689149;83;21075;-80
2022/11/22 01:00:53;;;;;;;92.33;52.83;;;;;;;4.01;83.21;93531.78;1696377;83;22024;-80
2022/11/22 01:03:21;;;;;;;101.07;58.30;;;;;;;4.02;82.73;93533.91;1684865;83;21530;-80
2022/11/22 02:03:55;;;;;;;61.15;38.33;;;;;;;2.77;87.57;93515.13;1759838;79;27110;-85
2022/11/22 02:06:22;;;;;;;56.92;36.63;;;;;;;2.85;87.55;93519.94;1736529;82;21050;-84
2022/11/22 02:09:03;;;;;;;58.65;35.73;;;;;;;2.98;87.39;93517.28;1718098;82;21837;-84
2022/11/22 02:11:31;;;;;;;58.08;38.60;;;;;;;3.12;87.24;93515.55;1728212;81;21064;-85
2022/11/22 02:13:58;;;;;;;60.95;37.85;;;;;;;3.22;86.49;93517.22;1731927;81;20982;-85
2022/11/22 02:16:27;;;;;;;56.05;35.08;;;;;;;3.25;86.14;93517.72;1739140;81;20954;-84
2022/11/22 02:18:54;;;;;;;47.25;31.73;;;;;;;3.31;86.19;93515.98;1690164;82;21524;-85
2022/11/22 02:21:21;;;;;;;48.38;32.50;;;;;;;3.29;85.41;93512.36;1729814;81;21868;-84
2022/11/22 02:23:55;;;;;;;53.33;31.75;;;;;;;3.26;85.42;93520.59;1733840;81;20959;-85
2022/11/22 02:26:26;;;;;;;51.85;33.25;;;;;;;3.35;85.41;93523.44;1709675;82;21039;-84
2022/11/22 02:28:56;;;;;;;;;;;;;;;3.38;84.74;93520.63;1733902;81;21553;-84
2022/11/22 02:31:38;;;;;;;53.05;34.35;;;;;;;3.39;84.86;93520.80;1720937;81;20164;-85
2022/11/22 02:34:06;;;;;;;;;;;;;;;3.48;85.28;93516.09;1726711;81;21565;-85
2022/11/22 02:36:37;;;;;;;56.25;36.28;;;;;;;3.61;84.88;93526.56;1726877;82;20139;-84
2022/11/22 02:39:06;;;;;;;56.83;37.30;;;;;;;3.63;84.16;93532.33;1702269;84;21525;-84
2022/11/22 02:41:35;;;;;;;62.53;37.65;;;;;;;3.59;84.10;93539.83;1665969;85;21591;-85
2022/11/22 02:44:02;;;;;;;68.42;43.10;;;;;;;3.70;84.54;93532.73;1679534;83;21086;-86
2022/11/22 02:46:29;;;;;;;69.62;42.67;;;;;;;3.77;83.65;93536.00;1694557;83;21156;-85
2022/11/22 02:48:56;;;;;;;77.72;47.75;;;;;;;3.72;83.42;93536.52;1685918;83;21467;-85
2022/11/22 02:51:24;;;;;;;67.00;44.27;;;;;;;3.72;83.55;93546.03;1700805;83;21030;-86
2022/11/22 02:53:52;;;;;;;82.82;50.08;;;;;;;3.76;83.30;93541.28;1708134;83;21109;-85
2022/11/22 02:56:19;;;;;;;84.47;49.58;;;;;;;3.82;83.61;93546.34;1702445;83;21046;-85
2022/11/22 02:58:47;;;;;;;83.52;49.45;;;;;;;3.94;83.41;93542.11;1692139;83;22158;-86
2022/11/22 03:01:13;;;;;;;78.45;48.87;;;;;;;4.05;82.94;93535.14;1697662;83;21443;-84
2022/11/22 03:03:40;;;;;;;93.70;55.08;;;;;;;4.10;82.53;93540.06;1645603;85;20998;-85
2022/11/22 03:06:07;;;;;;;85.15;50.25;;;;;;;4.07;81.85;93542.89;1668633;84;21097;-84
2022/11/22 03:08:34;;;;;;;80.90;48.28;;;;;;;3.98;81.91;93541.39;1678487;84;20998;-85
2022/11/22 03:11:01;;;;;;;80.07;50.83;;;;;;;4.02;82.44;93544.19;1685059;83;21213;-86
2022/11/22 03:13:29;;;;;;;82.35;46.75;;;;;;;4.04;81.70;93543.15;1662663;83;21034;-85
2022/11/22 03:15:56;;;;;;;86.82;47.35;;;;;;;4.02;81.68;93542.82;1622184;87;21039;-85
2022/11/22 03:18:25;;;;;;;81.10;44.88;;;;;;;4.01;81.74;93553.55;1643830;87;21067;-85
2022/11/22 03:20:53;;;;;;;78.92;45.70;;;;;;;4.07;81.61;93557.23;1624843;87;21569;-85
2022/11/22 03:23:21;;;;;;;92.50;53.78;;;;;;;4.16;82.05;93558.73;1651134;86;21780;-85
2022/11/22 03:25:50;;;;;;;99.17;52.75;;;;;;;4.27;81.55;93557.04;1666908;84;21015;-85
2022/11/22 03:28:17;;;;;;;86.80;49.73;;;;;;;4.35;81.49;93563.78;1643836;84;21042;-85
2022/11/22 03:30:43;;;;;;;60.73;38.02;;;;;;;4.44;81.34;93558.45;1649883;84;21062;-85
2022/11/22 03:33:11;;;;;;;67.97;40.17;;;;;;;4.49;80.66;93559.26;1650663;83;20983;-85
2022/11/22 03:35:38;;;;;;;68.95;41.88;;;;;;;4.50;80.53;93559.42;1671935;85;21864;-85
2022/11/22 03:38:05;;;;;;;74.55;43.45;;;;;;;4.61;80.41;93563.94;1661060;84;21039;-84
2022/11/22 03:40:33;;;;;;;81.50;47.38;;;;;;;4.67;79.73;93568.41;1655173;84;21004;-85
2022/11/22 03:43:01;;;;;;;74.07;46.10;;;;;;;4.69;79.74;93570.67;1675335;83;21022;-86
2022/11/22 03:45:28;;;;;;;89.25;53.25;;;;;;;4.71;79.33;93573.13;1684915;82;21027;-85
2022/11/22 03:47:57;;;;;;;88.55;54.15;;;;;;;4.73;79.38;93578.13;1686065;82;21486;-85
2022/11/22 03:50:24;;;;;;;79.15;47.93;;;;;;;4.78;79.55;93572.89;1692521;82;21007;-85
2022/11/22 03:52:52;;;;;;;98.05;60.45;;;;;;;4.90;79.19;93576.80;1702574;82;20979;-86
2022/11/22 03:55:19;;;;;;;70.78;43.45;;;;;;;4.96;78.61;93573.69;1693597;82;20991;-85
2022/11/22 03:57:48;;;;;;;64.95;42.53;;;;;;;4.97;78.12;93578.69;1699674;82;21467;-85
2022/11/22 04:00:15;;;;;;;85.47;53.55;;;;;;;4.86;77.63;93570.70;1678974;82;21955;-85
2022/11/22 04:02:44;;;;;;;99.32;63.75;;;;;;;4.80;77.88;93569.13;1671792;83;21554;-84
2022/11/22 04:05:10;;;;;;;110.57;68.22;;;;;;;4.75;78.28;93569.69;1708551;83;20978;-84
2022/11/22 04:07:39;;;;;;;112.20;70.57;;;;;;;4.76;77.95;93563.04;1698496;82;21093;-84
2022/11/22 04:10:08;;;;;;;86.30;55.15;;;;;;;4.70;77.88;93559.36;1697390;82;21085;-85
2022/11/22 04:12:36;;;;;;;78.47;48.50;;;;;;;4.64;77.95;93568.52;1704514;82;21529;-85
2022/11/22 04:15:06;;;;;;;67.82;45.80;;;;;;;4.63;78.64;93558.20;1692226;82;21074;-85
2022/11/22 04:17:43;;;;;;;67.30;43.73;;;;;;;4.67;78.33;93558.88;1693440;82;20958;-84
2022/11/22 04:23:14;;;;;;;49.48;33.53;;;;;;;4.70;78.82;93564.02;1597949;88;21010;-83
2022/11/22 04:25:47;;;;;;;77.90;50.57;;;;;;;4.80;78.45;93571.85;1573397;90;21060;-85
2022/11/22 04:28:16;;;;;;;73.57;48.63;;;;;;;4.84;78.60;93575.25;1599717;87;20985;-85
2022/11/22 04:33:29;;;;;;;84.80;51.28;;;;;;;4.94;77.55;93570.03;1567575;90;21541;-84
2022/11/22 04:35:56;;;;;;;131.78;67.85;;;;;;;4.82;77.32;93581.70;1559799;90;21097;-84
2022/11/22 04:38:24;;;;;;;121.40;61.48;;;;;;;4.80;78.00;93574.58;1569401;90;21237;-84
2022/11/22 04:40:51;;;;;;;96.05;54.70;;;;;;;4.88;78.21;93581.34;1598708;88;21042;-85
2022/11/22 04:46:08;;;;;;;96.75;53.68;;;;;;;4.91;77.37;93587.27;1529224;91;21077;-86
2022/11/22 04:48:35;;;;;;;66.02;40.15;;;;;;;4.87;77.28;93589.34;1529188;92;21030;-85
2022/11/22 04:53:48;;;;;;;56.28;33.60;;;;;;;4.77;77.26;93584.99;1531331;91;21076;-87
2022/11/22 04:56:14;;;;;;;51.80;31.97;;;;;;;4.67;77.30;93586.11;1535841;90;21086;-85
2022/11/22 04:58:42;;;;;;;51.23;31.73;;;;;;;4.60;77.64;93584.95;1538786;91;21149;-85
2022/11/22 05:01:09;;;;;;;52.53;32.13;;;;;;;4.57;77.75;93581.00;1549046;91;21056;-85
2022/11/22 05:03:36;;;;;;;56.13;35.50;;;;;;;4.56;78.06;93581.59;1549966;91;21154;-85
2022/11/22 05:06:04;;;;;;;64.67;40.85;;;;;;;4.53;78.15;93586.55;1555920;91;21024;-85
2022/11/22 05:08:33;;;;;;;112.60;61.08;;;;;;;4.53;78.53;93587.91;1549808;91;21087;-85
2022/11/22 05:11:02;;;;;;;92.35;52.50;;;;;;;4.57;78.53;93595.36;1550709;90;21140;-85
2022/11/22 05:13:35;;;;;;;131.00;70.75;;;;;;;4.55;78.58;93592.31;1550937;91;21253;-85
2022/11/22 05:16:04;;;;;;;129.30;69.10;;;;;;;4.60;78.99;93597.20;1542321;91;21186;-87
2022/11/22 05:18:32;;;;;;;98.62;56.63;;;;;;;4.67;78.50;93596.23;1553011;89;21523;-87
2022/11/22 05:21:12;;;;;;;81.95;46.73;;;;;;;4.61;78.45;93600.70;1625462;86;21165;-88
2022/11/22 05:23:54;;;;;;;77.05;44.67;;;;;;;4.57;77.89;93599.45;1555121;90;21089;-87
2022/11/22 05:26:27;;;;;;;76.85;44.35;;;;;;;4.44;77.84;93597.31;1572099;89;21082;-85
2022/11/22 05:28:55;;;;;;;75.12;46.25;;;;;;;4.34;78.56;93599.78;1523396;92;21256;-85
2022/11/22 05:31:23;;;;;;;66.22;42.03;;;;;;;4.37;78.61;93605.71;1526408;92;21098;-86
2022/11/22 05:33:52;;;;;;;61.30;38.50;;;;;;;4.37;78.44;93613.87;1521906;93;21249;-87
2022/11/22 05:36:21;;;;;;;71.40;44.60;;;;;;;4.32;78.34;93611.70;1519469;93;21079;-85
2022/11/22 05:38:53;;;;;;;76.37;46.70;;;;;;;4.31;79.15;93608.82;1508135;94;21033;-84
2022/11/22 05:41:21;;;;;;;69.05;46.40;;;;;;;4.38;78.89;93616.77;1496414;95;21526;-82
2022/11/22 05:43:48;;;;;;;62.90;41.73;;;;;;;4.33;78.61;93610.50;1485274;94;21050;-82
2022/11/22 05:46:19;;;;;;;61.20;43.05;;;;;;;4.28;78.96;93612.39;1507241;94;21068;-77
2022/11/22 05:48:46;;;;;;;62.55;43.42;;;;;;;4.32;79.43;93619.09;1506886;93;21077;-75
2022/11/22 05:51:16;;;;;;;66.53;43.85;;;;;;;4.36;79.07;93618.38;1490879;94;21039;-83
2022/11/22 05:53:43;;;;;;;66.95;42.40;;;;;;;4.37;79.06;93619.33;1518912;93;21581;-88
2022/11/22 05:56:13;;;;;;;56.08;39.67;;;;;;;4.41;79.24;93617.86;1515553;91;22264;-86
2022/11/22 05:58:45;;;;;;;58.98;39.88;;;;;;;4.49;79.25;93623.25;1518543;91;21038;-86
2022/11/22 06:01:19;;;;;;;58.90;39.30;;;;;;;4.59;79.30;93621.55;1524554;92;21049;-85
2022/11/22 06:03:47;;;;;;;78.60;50.98;;;;;;;4.72;78.82;93629.13;1504602;93;21231;-86
2022/11/22 06:06:16;;;;;;;61.88;41.08;;;;;;;4.73;78.33;93632.02;1494573;94;21273;-88
2022/11/22 06:08:46;;;;;;;54.48;37.90;;;;;;;4.75;78.47;93632.34;1530174;91;21612;-87
2022/11/22 06:11:22;;;;;;;48.73;35.92;;;;;;;4.74;78.11;93634.91;1515904;91;21053;-88
2022/11/22 06:14:04;;;;;;;54.05;37.63;;;;;;;4.73;78.23;93636.69;1514754;92;21151;-89
2022/11/22 06:16:35;;;;;;;68.60;44.05;;;;;;;4.77;78.41;93634.64;1520045;91;21098;-88
2022/11/22 06:19:17;;;;;;;60.85;42.65;;;;;;;4.78;77.97;93634.19;1519255;92;21177;-91
2022/11/22 06:21:53;;;;;;;54.15;37.38;;;;;;;4.78;77.83;93635.55;1496188;93;20989;-92
2022/11/22 06:24:23;;;;;;;68.80;47.33;;;;;;;4.75;77.70;93637.79;1503894;95;21168;-90
2022/11/22 06:27:00;;;;;;;61.15;41.53;;;;;;;4.77;78.37;93642.20;1525841;93;21143;-91
2022/11/22 06:29:34;;;;;;;69.77;43.63;;;;;;;4.84;77.91;93635.19;1489026;95;21073;-91
2022/11/22 06:32:03;;;;;;;66.42;45.48;;;;;;;4.81;77.61;93635.28;1491155;94;22639;-92
2022/11/22 06:34:48;;;;;;;78.05;54.95;;;;;;;4.84;78.31;93636.55;1405919;97;21010;31
2022/11/22 06:37:20;;;;;;;86.60;58.85;;;;;;;4.93;78.24;93642.08;1474992;95;21080;-88
2022/11/22 06:39:47;;;;;;;116.67;79.75;;;;;;;4.96;77.76;93641.20;1424511;95;21254;-88
2022/11/22 06:42:15;;;;;;;92.53;67.35;;;;;;;5.00;77.91;93647.91;1378346;101;21269;-89
2022/11/22 06:44:42;;;;;;;80.28;59.38;;;;;;;4.97;77.62;93652.87;1391712;100;21206;-89
2022/11/22 06:47:09;;;;;;;81.45;59.15;;;;;;;4.98;77.85;93648.34;1395236;99;21121;-88
2022/11/22 06:49:39;;;;;;;71.87;50.55;;;;;;;5.03;77.38;93648.39;1398268;99;21165;-85
2022/11/22 06:52:06;;;;;;;65.20;49.00;;;;;;;5.08;77.38;93651.34;1422649;96;21236;-93
2022/11/22 06:57:38;;;;;;;115.28;76.35;;;;;;;5.06;77.13;93651.02;1428656;96;21284;-87
2022/11/22 07:00:07;;;;;;;112.10;79.42;;;;;;;4.98;77.12;93648.34;1419594;96;21206;-88
2022/11/22 07:02:36;;;;;;;99.30;68.72;;;;;;;4.80;77.22;93642.69;1446581;95;21537;-88
2022/11/22 07:05:04;;;;;;;99.90;69.32;;;;;;;4.68;77.88;93650.28;1470370;95;21124;-88
2022/11/22 07:07:34;;;;;;;122.95;76.75;;;;;;;4.57;78.02;93653.91;1507620;91;21111;-88
2022/11/22 07:10:01;;;;;;;117.85;80.75;;;;;;;4.49;78.48;93655.92;1524678;90;21566;-87
2022/11/22 07:12:29;;;;;;;115.70;77.82;;;;;;;4.39;78.86;93648.84;1525449;92;21039;-89
2022/11/22 07:15:04;;;;;;;122.33;83.25;;;;;;;4.37;79.25;93658.80;1524654;91;21123;-88
2022/11/22 07:17:36;;;;;;;113.28;76.10;;;;;;;4.34;79.41;93650.14;1472527;94;21142;-86
2022/11/22 07:20:07;;;;;;;103.67;72.50;;;;;;;4.26;79.64;93656.97;1483018;94;21285;-86
2022/11/22 07:25:28;;;;;;;121.77;84.15;;;;;;;4.19;80.08;93662.63;1486077;93;21158;-86
2022/11/22 07:27:55;;;;;;;96.50;69.40;;;;;;;4.25;80.66;93652.73;1535337;90;21078;-83
2022/11/22 07:30:22;;;;;;;129.12;90.62;;;;;;;4.40;80.99;93655.20;1538255;91;21279;-90
2022/11/22 07:32:50;;;;;;;161.55;105.27;;;;;;;4.53;80.45;93653.27;1522978;91;21654;-88
2022/11/22 07:35:25;;;;;;;166.75;108.25;;;;;;;4.68;80.58;93654.36;1508365;92;21446;-88
2022/11/22 07:37:56;;;;;;;197.30;124.42;;;;;;;4.83;80.03;93648.61;1499393;92;21206;-86
2022/11/22 07:40:30;;;;;;;188.82;119.50;;;;;;;4.91;79.34;93654.61;1520978;92;21100;-90
2022/11/22 07:43:05;;;;;;;186.67;122.37;;;;;;;4.94;78.93;93645.58;1488009;95;21237;-92
2022/11/22 07:48:39;;;;;;;139.10;90.65;;;;;;;5.08;79.33;93647.83;1444570;97;21748;-85
2022/11/22 07:51:13;;;;;;;158.40;101.18;;;;;;;5.25;79.07;93650.00;1393577;101;21137;-83
2022/11/22 07:53:46;;;;;;;150.82;98.72;;;;;;;5.22;78.39;93637.25;1390759;101;21173;-87
2022/11/22 07:59:33;;;;;;;118.80;76.55;;;;;;;5.21;78.12;93639.81;1335885;102;21103;-85
2022/11/22 08:02:11;;;;;;;122.67;77.92;;;;;;;5.08;77.85;93637.70;1367404;102;21342;-85
2022/11/22 08:04:45;;;;;;;113.70;72.12;;;;;;;4.97;77.93;93643.34;1381900;100;21177;-85
2022/11/22 08:07:23;;;;;;;102.27;66.75;;;;;;;4.90;78.38;93645.69;1354780;102;21293;-84
2022/11/22 08:09:53;;;;;;;88.50;61.28;;;;;;;4.89;78.50;93648.25;1312419;107;21242;-87
2022/11/22 08:12:30;;;;;;;102.27;64.17;;;;;;;4.91;79.00;93645.84;1305756;107;21670;-88
2022/11/22 08:15:02;;;;;;;86.17;59.15;;;;;;;5.06;79.39;93644.78;1275123;110;21338;-86
2022/11/22 08:17:42;;;;;;;88.95;61.68;;;;;;;5.16;79.32;93651.87;1298405;110;21107;-89
2022/11/22 08:20:15;;;;;;;100.00;67.12;;;;;;;5.20;79.10;93644.33;1321542;107;21163;-80
2022/11/22 08:23:43;;;;;;;86.37;56.98;;;;;;;5.21;78.98;93644.49;1298504;109;21552;-90
2022/11/22 08:26:14;;;;;;;85.70;61.37;;;;;;;5.21;78.89;93647.22;1294240;108;21194;-85
2022/11/22 08:28:42;;;;;;;86.47;61.92;;;;;;;5.20;78.79;93652.51;1301253;108;21201;-88
2022/11/22 08:38:05;;;;;;;130.95;87.08;;;;;;;5.34;78.92;93665.06;1289126;108;21209;-89
2022/11/22 08:43:43;;;;;;;126.10;81.82;;;;;;;5.53;79.54;93655.86;1300714;107;21561;-89
2022/11/22 08:46:17;;;;;;;104.32;68.75;;;;;;;6.05;78.76;93653.28;1309685;107;21211;-87
2022/11/22 08:49:22;;;;;;;93.97;65.45;;;;;;;6.48;78.19;93653.27;1277799;109;21326;-87
2022/11/22 08:51:52;;;;;;;95.42;63.40;;;;;;;6.81;76.49;93647.48;1265141;109;21272;-85
2022/11/22 08:54:27;;;;;;;83.15;53.83;;;;;;;7.08;75.90;93659.28;1310829;102;21143;-91
2022/11/22 08:56:58;;;;;;;78.55;52.88;;;;;;;7.35;74.62;93656.02;1361345;103;21192;-86
2022/11/22 08:59:29;;;;;;;58.70;44.53;;;;;;;7.48;73.51;93654.55;1383739;100;21831;-84
2022/11/22 09:01:56;;;;;;;50.20;36.98;;;;;;;7.51;73.08;93652.27;1447376;96;21193;-85
2022/11/22 09:04:27;;;;;;;52.33;35.17;;;;;;;7.53;73.44;93654.69;1480269;94;21228;-90
2022/11/22 09:06:56;;;;;;;47.25;33.23;;;;;;;7.92;73.10;93664.76;1477907;94;21162;-89
2022/11/22 09:09:25;;;;;;;46.55;26.30;;;;;;;8.43;71.86;93667.67;1460048;95;21186;-86
2022/11/22 09:11:52;;;;;;;50.78;28.05;;;;;;;8.98;69.95;93669.20;1495507;91;22095;-87
2022/11/22 09:17:35;;;;;;;22.58;14.98;;;;;;;9.61;65.65;93675.02;1475336;94;21629;-85
2022/11/22 09:20:03;;;;;;;19.42;13.98;;;;;;;9.78;64.89;93676.14;1477111;93;21078;-90
2022/11/22 09:22:36;;;;;;;22.30;15.48;;;;;;;9.79;64.36;93670.79;1489964;92;21219;-85
2022/11/22 09:25:04;;;;;;;26.93;22.58;;;;;;;9.92;63.85;93669.31;1450026;96;21165;-86
2022/11/22 09:27:38;;;;;;;25.10;18.90;;;;;;;9.93;62.67;93663.97;1441806;97;21276;-88
2022/11/22 09:30:38;;;;;;;18.70;14.90;;;;;;;9.91;62.37;93660.16;1419112;98;21207;-88
2022/11/22 09:33:21;;;;;;;;;;;;;;;;;;;;;
2022/11/22 09:35:54;;;;;;;14.87;10.95;;;;;;;9.96;60.97;93659.53;1380366;101;21279;-86
2022/11/22 09:38:20;;;;;;;12.55;10.13;;;;;;;9.83;60.75;93654.26;1367980;103;21215;-83
2022/11/22 09:40:49;;;;;;;12.68;9.95;;;;;;;9.66;61.27;93655.89;1370044;103;21287;-88
2022/11/22 09:47:31;;;;;;;9.25;7.80;;;;;;;9.33;62.67;93655.79;1388921;101;21266;-91
2022/11/22 09:50:14;;;;;;;11.43;9.33;;;;;;;9.35;63.15;93663.72;1373497;103;21324;-86
2022/11/22 09:53:03;;;;;;;15.72;9.28;;;;;;;9.34;62.96;93664.17;1358913;104;21195;-88
2022/11/22 09:55:52;;;;;;;14.55;10.88;;;;;;;9.18;63.08;93661.80;1353365;105;21162;-88
2022/11/22 09:58:32;;;;;;;20.05;15.35;;;;;;;8.87;63.30;93666.04;1354049;102;21236;-90
2022/11/22 10:01:32;;;;;;;21.87;16.70;;;;;;;8.54;63.83;93670.09;1343309;104;22299;-88
2022/11/22 10:04:23;;;;;;;19.00;15.83;;;;;;;8.27;64.48;93667.37;1362030;102;21709;-85
2022/11/22 10:07:03;;;;;;;19.40;15.68;;;;;;;8.02;65.33;93667.67;1336252;103;21365;-89
2022/11/22 10:09:45;;;;;;;24.25;18.15;;;;;;;7.85;66.15;93660.97;1380408;102;21258;-85
2022/11/22 10:12:21;;;;;;;34.27;22.52;;;;;;;7.78;66.46;93660.50;1391275;99;21275;-89
2022/11/22 10:14:56;;;;;;;31.23;20.30;;;;;;;7.66;67.13;93662.17;1362059;103;21636;-88
2022/11/22 10:17:52;;;;;;;48.75;34.27;;;;;;;7.61;67.28;93670.21;1334142;103;21177;-89
2022/11/22 10:20:27;;;;;;;34.50;25.92;;;;;;;7.64;67.79;93672.81;1351457;104;21216;-84
2022/11/22 10:22:55;;;;;;;20.85;15.90;;;;;;;7.86;68.05;93673.44;1351678;104;21299;-87
2022/11/22 10:25:33;;;;;;;23.00;16.32;;;;;;;8.31;67.71;93682.30;1356606;103;21258;-90
2022/11/22 10:28:20;;;;;;;23.90;15.35;;;;;;;8.92;66.59;93682.63;1341249;104;21220;-86
2022/11/22 10:31:19;;;;;;;21.95;14.80;;;;;;;9.29;65.13;93679.27;1372894;103;21324;-87
2022/11/22 10:34:07;;;;;;;23.07;15.43;;;;;;;9.41;64.05;93683.06;1404937;99;21179;-88
2022/11/22 10:37:06;;;;;;;19.52;12.82;;;;;;;9.50;63.59;93677.51;1475056;96;21217;-87
2022/11/22 10:40:09;;;;;;;13.93;9.95;;;;;;;9.47;63.25;93673.70;1452214;95;21349;-89
2022/11/22 10:43:06;;;;;;;13.65;10.35;;;;;;;9.58;62.60;93679.44;1432399;98;21086;-89
2022/11/22 10:45:40;;;;;;;10.35;8.58;;;;;;;9.63;62.72;93683.55;1451701;97;21267;-89
2022/11/22 10:48:37;;;;;;;7.83;6.37;;;;;;;9.65;60.63;93686.58;1451771;95;21123;-89
2022/11/22 10:51:35;;;;;;;10.45;9.55;;;;;;;9.61;60.01;93684.00;1478967;91;21208;-89
2022/11/22 10:54:30;;;;;;;11.00;8.23;;;;;;;9.83;58.42;93687.84;1475941;91;21072;-85
2022/11/22 10:57:36;;;;;;;12.68;10.10;;;;;;;10.00;57.69;93684.83;1531150;92;21030;-87
2022/11/22 11:00:23;;;;;;;17.70;14.38;;;;;;;10.15;59.40;93689.17;1443191;96;21275;-88
2022/11/22 11:03:17;;;;;;;17.32;13.25;;;;;;;10.13;60.14;93696.38;1406096;96;21237;-86
2022/11/22 11:06:14;;;;;;;15.65;10.95;;;;;;;10.05;60.24;93704.22;1372825;101;21124;-85
2022/11/22 11:15:08;;;;;;;21.50;14.33;;;;;;;9.54;61.71;93722.02;1341344;102;21266;-90
2022/11/22 11:17:56;;;;;;;16.32;13.58;;;;;;;9.62;61.52;93716.34;1344313;102;21362;-87
2022/11/22 11:20:53;;;;;;;17.07;11.10;;;;;;;9.71;58.99;93712.94;1337383;103;21243;-89
2022/11/22 11:23:45;;;;;;;11.40;10.13;;;;;;;10.34;58.42;93711.79;1315668;102;21171;31
2022/11/22 11:26:33;;;;;;;11.85;7.47;;;;;;;11.32;56.19;93704.56;1237044;113;21262;-90
2022/11/22 11:30:11;;;;;;;24.47;20.12;;;;;;;12.18;54.61;93702.20;1221565;113;21336;-90
2022/11/22 11:34:03;;;;;;;16.70;14.18;;;;;;;12.93;51.75;93700.08;1209054;115;21361;-91
2022/11/22 11:36:37;;;;;;;9.83;7.70;;;;;;;13.50;50.81;93692.55;1213830;113;21273;-89
2022/11/22 11:39:20;;;;;;;10.75;8.30;;;;;;;14.32;48.45;93699.26;1229438;114;21228;-90
2022/11/22 11:41:59;;;;;;;8.68;6.60;;;;;;;15.15;46.98;93694.11;1228102;113;21347;-87
2022/11/22 11:44:38;;;;;;;14.90;8.68;;;;;;;15.85;45.14;93693.25;1214727;115;21279;-92
2022/11/22 11:50:20;;;;;;;7.67;5.78;;;;;;;16.51;43.09;93679.38;1243503;113;21362;-89
2022/11/22 11:53:07;;;;;;;8.38;6.25;;;;;;;17.03;42.45;93677.98;1214018;116;21763;-88
2022/11/22 11:55:37;;;;;;;4.03;3.55;;;;;;;17.30;41.47;93677.07;1187249;119;21368;-85
2022/11/22 12:01:24;;;;;;;9.43;7.00;;;;;;;17.73;39.29;93672.45;1245683;108;21153;-89
2022/11/22 12:03:56;;;;;;;16.62;8.58;;;;;;;17.60;39.02;93666.73;1306432;109;21264;-87
2022/11/22 12:06:30;;;;;;;19.07;12.50;;;;;;;17.64;39.00;93660.28;1305046;106;21183;-93
2022/11/22 12:09:08;;;;;;;13.98;10.23;;;;;;;17.68;38.46;93663.53;1317130;107;21179;-86
2022/11/22 12:11:45;;;;;;;12.60;8.75;;;;;;;17.75;38.44;93657.39;1276769;110;21287;-81
2022/11/22 12:14:21;;;;;;;13.28;9.38;;;;;;;18.07;38.19;93655.58;1276196;111;21247;-82
2022/11/22 12:20:10;;;;;;;14.95;9.63;;;;;;;18.51;37.40;93656.64;1195921;117;21149;-91
2022/11/22 12:23:01;;;;;;;13.10;9.25;;;;;;;18.58;37.61;93663.02;1170331;119;21298;-87
2022/11/22 12:25:43;;;;;;;18.00;13.25;;;;;;;18.74;37.76;93664.08;1229205;115;21571;-88
2022/11/22 12:31:04;;;;;;;7.65;5.70;;;;;;;19.08;37.90;93663.13;1228688;113;21749;-89
2022/11/22 12:33:44;;;;;;;9.25;6.00;;;;;;;19.06;36.75;93664.30;1238716;115;21312;-89
2022/11/22 12:39:23;;;;;;;23.00;14.87;;;;;;;18.28;37.09;93655.37;1210060;114;21183;-85
2022/11/22 12:44:55;;;;;;;27.07;17.40;;;;;;;18.44;37.51;93661.39;1239507;114;21346;-86
2022/11/22 12:47:28;;;;;;;17.67;12.47;;;;;;;18.65;37.27;93654.05;1208582;118;21210;-81
2022/11/22 12:50:29;;;;;;;16.95;11.08;;;;;;;18.61;36.91;93658.43;1191865;118;21363;-88
2022/11/22 12:56:12;;;;;;;14.47;9.33;;;;;;;18.14;37.13;93658.53;;;;
2022/11/22 12:59:03;;;;;;;5.62;4.40;;;;;;;17.76;37.51;93651.31;;;;
2022/11/22 13:01:45;;;;;;;6.67;4.62;;;;;;;17.63;37.22;93641.44;;;;
2022/11/22 13:04:22;;;;;;;29.85;19.10;;;;;;;17.58;37.32;93637.30;1179634;117;21432;-87
2022/11/22 13:07:08;;;;;;;17.52;13.40;;;;;;;17.52;38.63;93640.16;1214631;114;21372;-88
2022/11/22 13:09:46;;;;;;;12.47;9.68;;;;;;;17.29;39.52;93641.55;1212650;114;21183;-88
2022/11/22 13:12:27;;;;;;;12.63;9.93;;;;;;;16.68;41.07;93647.36;1298726;104;21345;-88
2022/11/22 13:14:59;;;;;;;10.75;8.45;;;;;;;16.32;41.78;93655.42;1309424;105;21214;-91
2022/11/22 13:21:39;;;;;;;29.05;18.87;;;;;;;15.90;42.42;93654.41;1274471;107;21399;-86
2022/11/22 13:24:33;;;;;;;20.15;13.45;;;;;;;15.58;42.91;93643.48;1269715;108;21304;-88
2022/11/22 13:36:42;;;;;;;23.57;15.68;;;;;;;13.11;46.66;93637.62;1329248;105;21243;-91
2022/11/22 13:55:46;;;;;;;109.48;64.22;;;;;;;8.04;58.32;93642.58;1491426;92;21257;-85
2022/11/22 14:02:03;;;;;;;34.92;22.67;;;;;;;7.18;61.32;93645.19;1508088;93;21990;-84
2022/11/22 14:23:21;;;;;;;60.55;29.27;;;;;;;5.57;68.02;93659.25;1653997;85;20942;-86
2022/11/22 14:26:09;;;;;;;127.10;56.75;;;;;;;5.35;69.00;93663.28;1649908;85;21128;-86
2022/11/22 14:31:58;;;;;;;126.72;60.90;;;;;;;5.00;70.17;93667.73;1626128;86;21726;-84
2022/11/22 14:44:23;;;;;;;48.92;32.40;;;;;;;4.48;72.80;93678.31;1483341;95;21238;-89
2022/11/22 14:49:59;;;;;;;41.80;27.95;;;;;;;4.44;73.74;93685.80;1499535;89;21283;-87
2022/11/22 14:52:42;;;;;;;59.15;32.23;;;;;;;4.38;74.04;93688.91;1566880;89;21241;-87
2022/11/22 14:55:44;;;;;;;73.07;42.53;;;;;;;4.22;74.29;93684.89;1575743;90;21062;-87
2022/11/22 14:58:21;;;;;;;102.65;52.17;;;;;;;4.13;74.75;93688.86;1553824;90;21061;-85
2022/11/22 15:01:03;;;;;;;261.57;119.05;;;;;;;4.03;74.97;93695.34;1553465;90;21692;-85
2022/11/22 15:03:59;;;;;;;217.30;101.85;;;;;;;3.92;75.20;93700.91;1534220;92;21106;-87
2022/11/22 15:07:04;;;;;;;179.80;80.65;;;;;;;3.76;76.04;93698.23;1513570;93;21486;-86
2022/11/22 15:10:31;;;;;;;107.55;62.25;;;;;;;3.69;76.17;93700.55;1532842;92;21081;-87
2022/11/22 15:13:36;;;;;;;94.07;58.70;;;;;;;3.65;76.36;93705.93;1542576;90;21017;-86
2022/11/22 15:16:09;;;;;;;87.37;55.28;;;;;;;3.61;77.03;93701.94;1558155;90;21160;-88